Aeroporto :
LOGIN :

Iscrizione | Disclaimer

   EN    FR    IT 

 










Sommario :    VFR   VFR Marginale   IFR   IFR Intensivo   IFR Molto Intensivo
Visibilità : 
Base nubi : 
>= 8 km
>= 3000ft
5 / 8 km
1000 / 3000 ft
1500m / 5 km
500 / 1000 ft
800 / 1500m
200 / 500 ft
< 800m
< 200 ft
Simboli :   Temporali  Nebbia  Neve Forte  Precipitazioni Forti  Vento > 20 kt
SIGMETs :   Varie  Temporali  Ghiacco  Turbolenza  Onda orograficha  Ceneri Vulcaniche







- Altitudine del aeroporto : 357 ft
- Codice IATA : TUF
- Carte del aeroporto


LFOT - Tours

ULTIMO METAR :
  • 231330Z AUTO 06005KT 350V130 CAVOK 23/08 Q1017 NOSIG

METARs OBSOLETI :
  • 231300Z AUTO 12004KT 040V190 CAVOK 23/08 Q1017 NOSIG
  • 231230Z AUTO VRB03KT CAVOK 23/09 Q1017 NOSIG
  • 231200Z AUTO 07006KT 030V100 CAVOK 22/07 Q1017 NOSIG
  • 231130Z AUTO VRB05KT CAVOK 22/07 Q1018 NOSIG
  • 231100Z AUTO 11004KT 010V180 CAVOK 22/06 Q1018 NOSIG

TAF TAF LFOT
Valido dal 23 a 12 ore il 24 a 12 ore UTC


231100Z 2312/2412 VRB05KT CAVOK
PROB30
TEMPO 2317/2412 -SHRA SCT050TCU BKN070
Nessun NOTAM noto per questo aeroporto.



MetMap, La meteo Aeronautica in un colpo d'occhio ! - Copyright ORBIFLY Dicembre 2007 - Disclaimer

ORBIFLY MET'MAP TEAM :

Programmazione e sviluppo : Alexandra Zaïnal
Concezione e sviluppo : Baudouin d'Aumeries
Co-Programmazione e sviluppo : Marc-Olivier Méhu
Supporto tecnico e logistico : Manuel Goepfert
Aiuto per la traduzione : Arnaldo La Scala

Contatto : metmap@orbifly.com




FONTI E CREDITI :

   NOAA